Schedule Details


Flight Number: CTN432
Departure: Kastela (LDSP) at 13:35
Arrival: Tegel (EDDT) at 15:20
Route: IRMI M725 RUDIK UM725 ZAG UL187 OBUTI DCT TISKO DCT OKF L858 HDO M748 ESLOR UM748 OSKAN T203 AKUDI

Weather Information
LDSP 251730Z 05003KT 9999 VCTS FEW040 FEW050CB 29/17 Q1015 TEMPO 05015KT TSRA
EDDT 251750Z 08006KT 030V100 CAVOK 29/13 Q1020 NOSIG
Schedule Frequency

Route Map